createdAt,value
2018-06-08T00:00:07.917Z,1002.26
2018-06-08T00:01:07.943Z,1002.24
2018-06-08T00:02:07.969Z,1002.2
2018-06-08T00:03:07.996Z,1002.17
2018-06-08T00:04:08.023Z,1002.13
2018-06-08T00:05:08.049Z,1002.17
2018-06-08T00:06:08.076Z,1002.13
2018-06-08T00:07:08.107Z,1002.17
2018-06-08T00:08:08.133Z,1002.23
2018-06-08T00:09:08.156Z,1002.16
2018-06-08T00:10:08.179Z,1002.22
2018-06-08T00:11:08.210Z,1002.2
2018-06-08T00:12:08.234Z,1002.15
2018-06-08T00:13:08.263Z,1002.16
2018-06-08T00:14:08.293Z,1002.14
2018-06-08T00:15:08.311Z,1002.11
2018-06-08T00:16:08.341Z,1002.12
2018-06-08T00:17:08.370Z,1002.14
2018-06-08T00:18:08.396Z,1002.11
2018-06-08T00:19:08.426Z,1002.12
2018-06-08T00:20:08.449Z,1002.12
2018-06-08T00:21:08.477Z,1002.11
2018-06-08T00:22:08.503Z,1002.09
2018-06-08T00:23:08.529Z,1002.06
2018-06-08T00:24:08.557Z,1002.1
2018-06-08T00:25:08.581Z,1002.09
2018-06-08T00:26:08.608Z,1002.02
2018-06-08T00:27:08.635Z,1002.04
2018-06-08T00:28:08.660Z,1002.07
2018-06-08T00:29:08.686Z,1002.05
2018-06-08T00:30:08.710Z,1002.06
2018-06-08T00:31:08.740Z,1002.07
2018-06-08T00:32:08.764Z,1002.08
2018-06-08T00:33:08.790Z,1002.08
2018-06-08T00:34:08.823Z,1002.09
2018-06-08T00:35:08.845Z,1002.06
2018-06-08T00:36:08.875Z,1002.04
2018-06-08T00:37:08.898Z,1002.04
2018-06-08T00:38:08.926Z,1002.03
2018-06-08T00:39:08.957Z,1002.02
2018-06-08T00:40:08.974Z,1002.05
2018-06-08T00:41:09.004Z,1002.08
2018-06-08T00:42:09.033Z,1002.07
2018-06-08T00:43:09.057Z,1002.09
2018-06-08T00:44:09.088Z,1002.07
2018-06-08T00:45:09.111Z,1002.08
2018-06-08T00:46:09.142Z,1002.02
2018-06-08T00:47:09.164Z,1002.08
2018-06-08T00:48:09.189Z,1002.04
2018-06-08T00:49:09.211Z,1002.02
2018-06-08T00:50:09.243Z,1002.03
2018-06-08T00:51:09.272Z,1002.04
2018-06-08T00:52:09.294Z,1002.02
2018-06-08T00:53:09.325Z,1002.03
2018-06-08T00:54:09.342Z,1001.99
2018-06-08T00:55:09.367Z,1002.04
2018-06-08T00:56:09.400Z,1002.07
2018-06-08T00:57:09.432Z,1002.01
2018-06-08T00:58:09.448Z,1002.02
2018-06-08T00:59:09.480Z,1002.05
2018-06-08T01:00:09.502Z,1002.01
2018-06-08T01:01:09.526Z,1002.01
2018-06-08T01:02:09.556Z,1002.01
2018-06-08T01:03:09.579Z,1001.98
2018-06-08T01:04:09.604Z,1002
2018-06-08T01:05:09.637Z,1002.04
2018-06-08T01:06:09.663Z,1002
2018-06-08T01:07:09.686Z,1001.98
2018-06-08T01:08:09.714Z,1001.99
2018-06-08T01:09:09.738Z,1001.98
2018-06-08T01:10:09.759Z,1001.98
2018-06-08T01:11:09.788Z,1001.98
2018-06-08T01:12:09.820Z,1001.98
2018-06-08T01:13:09.839Z,1001.95
2018-06-08T01:14:09.865Z,1001.97
2018-06-08T01:15:09.896Z,1001.97
2018-06-08T01:16:09.924Z,1001.99
2018-06-08T01:17:09.939Z,1001.99
2018-06-08T01:18:09.975Z,1001.99
2018-06-08T01:19:09.993Z,1002.03
2018-06-08T01:20:10.019Z,1002.03
2018-06-08T01:21:10.045Z,1002.04
2018-06-08T01:22:10.069Z,1002.01
2018-06-08T01:23:10.098Z,1002.02
2018-06-08T01:24:10.128Z,1002.01
2018-06-08T01:25:10.152Z,1002.01
2018-06-08T01:26:10.177Z,1002.02
2018-06-08T01:27:10.207Z,1001.98
2018-06-08T01:28:10.223Z,1001.98
2018-06-08T01:29:10.253Z,1001.96
2018-06-08T01:30:10.275Z,1001.94
2018-06-08T01:31:10.306Z,1001.96
2018-06-08T01:32:10.327Z,1001.99
2018-06-08T01:33:10.359Z,1001.98
2018-06-08T01:34:10.387Z,1001.95
2018-06-08T01:35:10.409Z,1001.97
2018-06-08T01:36:10.438Z,1001.97
2018-06-08T01:37:10.459Z,1001.96
2018-06-08T01:38:10.484Z,1001.96
2018-06-08T01:39:10.508Z,1001.98
2018-06-08T01:40:10.536Z,1001.95
2018-06-08T01:41:10.558Z,1001.96
2018-06-08T01:42:10.587Z,1001.97
2018-06-08T01:43:10.612Z,1001.95
2018-06-08T01:44:10.635Z,1001.96
2018-06-08T01:45:10.665Z,1001.91
2018-06-08T01:46:10.698Z,1001.93
2018-06-08T01:47:10.714Z,1001.9
2018-06-08T01:48:10.737Z,1001.89
2018-06-08T01:49:10.768Z,1001.9
2018-06-08T01:50:10.789Z,1001.88
2018-06-08T01:51:10.825Z,1001.9
2018-06-08T01:52:10.842Z,1001.85
2018-06-08T01:53:10.878Z,1001.88
2018-06-08T01:54:10.891Z,1001.9
2018-06-08T01:55:10.920Z,1001.86
2018-06-08T01:56:10.943Z,1001.87
2018-06-08T01:57:10.969Z,1001.87
2018-06-08T01:58:10.991Z,1001.84
2018-06-08T01:59:11.016Z,1001.85
2018-06-08T02:00:11.052Z,1001.85
2018-06-08T02:01:11.067Z,1001.83
2018-06-08T02:02:11.097Z,1001.86
2018-06-08T02:03:11.121Z,1001.8
2018-06-08T02:04:11.147Z,1001.81
2018-06-08T02:05:11.167Z,1001.82
2018-06-08T02:06:11.198Z,1001.8
2018-06-08T02:07:11.220Z,1001.81
2018-06-08T02:08:11.244Z,1001.79
2018-06-08T02:09:11.269Z,1001.8
2018-06-08T02:10:11.303Z,1001.8
2018-06-08T02:11:11.325Z,1001.79
2018-06-08T02:12:11.347Z,1001.8
2018-06-08T02:13:11.370Z,1001.83
2018-06-08T02:14:11.401Z,1001.83
2018-06-08T02:15:11.424Z,1001.84
2018-06-08T02:16:11.454Z,1001.85
2018-06-08T02:17:11.477Z,1001.84
2018-06-08T02:18:11.499Z,1001.83
2018-06-08T02:19:11.524Z,1001.84
2018-06-08T02:20:11.551Z,1001.82
2018-06-08T02:21:11.576Z,1001.84
2018-06-08T02:22:11.602Z,1001.79
2018-06-08T02:23:11.629Z,1001.82
2018-06-08T02:24:11.655Z,1001.77
2018-06-08T02:25:11.676Z,1001.76
2018-06-08T02:26:11.699Z,1001.77
2018-06-08T02:27:11.727Z,1001.75
2018-06-08T02:28:11.750Z,1001.71
2018-06-08T02:29:11.781Z,1001.75
2018-06-08T02:30:11.796Z,1001.74
2018-06-08T02:31:11.839Z,1001.72
2018-06-08T02:32:11.849Z,1001.69
2018-06-08T02:33:11.877Z,1001.7
2018-06-08T02:34:11.897Z,1001.74
2018-06-08T02:35:11.929Z,1001.76
2018-06-08T02:36:11.949Z,1001.76
2018-06-08T02:37:11.980Z,1001.77
2018-06-08T02:38:12.004Z,1001.76
2018-06-08T02:39:12.029Z,1001.77
2018-06-08T02:40:12.057Z,1001.75
2018-06-08T02:41:12.075Z,1001.77
2018-06-08T02:42:12.100Z,1001.75
2018-06-08T02:43:12.127Z,1001.77
2018-06-08T02:44:12.152Z,1001.75
2018-06-08T02:45:12.173Z,1001.73
2018-06-08T02:46:12.198Z,1001.75
2018-06-08T02:47:12.225Z,1001.72
2018-06-08T02:48:12.250Z,1001.69
2018-06-08T02:49:12.282Z,1001.7
2018-06-08T02:50:12.300Z,1001.68
2018-06-08T02:51:12.323Z,1001.7
2018-06-08T02:52:12.349Z,1001.69
2018-06-08T02:53:12.377Z,1001.68
2018-06-08T02:54:12.396Z,1001.68
2018-06-08T02:55:12.422Z,1001.67
2018-06-08T02:56:12.451Z,1001.69
2018-06-08T02:57:12.471Z,1001.7
2018-06-08T02:58:12.494Z,1001.73
2018-06-08T02:59:12.520Z,1001.69
2018-06-08T03:00:12.542Z,1001.68
2018-06-08T03:01:12.574Z,1001.7
2018-06-08T03:02:12.595Z,1001.7
2018-06-08T03:03:12.615Z,1001.71
2018-06-08T03:04:12.643Z,1001.71
2018-06-08T03:05:12.669Z,1001.7
2018-06-08T03:06:12.704Z,1001.72
2018-06-08T03:07:12.716Z,1001.7
2018-06-08T03:08:12.740Z,1001.66
2018-06-08T03:09:12.771Z,1001.67
2018-06-08T03:10:12.788Z,1001.66
2018-06-08T03:11:12.820Z,1001.65
2018-06-08T03:12:12.843Z,1001.66
2018-06-08T03:13:12.867Z,1001.66
2018-06-08T03:14:12.889Z,1001.67
2018-06-08T03:15:12.915Z,1001.71
2018-06-08T03:16:12.941Z,1001.66
2018-06-08T03:17:12.961Z,1001.67
2018-06-08T03:18:12.990Z,1001.68
2018-06-08T03:19:13.009Z,1001.64
2018-06-08T03:20:13.043Z,1001.63
2018-06-08T03:21:13.057Z,1001.66
2018-06-08T03:22:13.089Z,1001.66
2018-06-08T03:23:13.111Z,1001.69
2018-06-08T03:24:13.136Z,1001.68
2018-06-08T03:25:13.166Z,1001.68
2018-06-08T03:26:13.181Z,1001.68
2018-06-08T03:27:13.212Z,1001.7
2018-06-08T03:28:13.231Z,1001.74
2018-06-08T03:29:13.253Z,1001.78
2018-06-08T03:30:13.280Z,1001.75
2018-06-08T03:31:13.306Z,1001.74
2018-06-08T03:32:13.326Z,1001.77
2018-06-08T03:33:13.353Z,1001.79
2018-06-08T03:34:13.383Z,1001.75
2018-06-08T03:35:13.399Z,1001.78
2018-06-08T03:36:13.423Z,1001.8
2018-06-08T03:37:13.451Z,1001.8
2018-06-08T03:38:13.477Z,1001.8
2018-06-08T03:39:13.496Z,1001.81
2018-06-08T03:40:13.521Z,1001.84
2018-06-08T03:41:13.552Z,1001.82
2018-06-08T03:42:13.573Z,1001.84
2018-06-08T03:43:13.598Z,1001.82
2018-06-08T03:44:13.622Z,1001.82
2018-06-08T03:45:13.645Z,1001.82
2018-06-08T03:46:13.667Z,1001.83
2018-06-08T03:47:13.692Z,1001.79
2018-06-08T03:48:13.715Z,1001.76
2018-06-08T03:49:13.738Z,1001.77
2018-06-08T03:50:13.770Z,1001.8
2018-06-08T03:51:13.798Z,1001.75
2018-06-08T03:52:13.819Z,1001.74
2018-06-08T03:53:13.839Z,1001.74
2018-06-08T03:54:13.858Z,1001.71
2018-06-08T03:55:13.883Z,1001.73
2018-06-08T03:56:13.908Z,1001.71
2018-06-08T03:57:13.937Z,1001.75
2018-06-08T03:58:13.964Z,1001.74
2018-06-08T03:59:13.984Z,1001.73
2018-06-08T04:00:14.007Z,1001.72
2018-06-08T04:01:14.027Z,1001.78
2018-06-08T04:02:14.051Z,1001.71
2018-06-08T04:03:14.084Z,1001.73
2018-06-08T04:04:14.102Z,1001.74
2018-06-08T04:05:14.127Z,1001.74
2018-06-08T04:06:14.154Z,1001.74
2018-06-08T04:07:14.172Z,1001.72
2018-06-08T04:08:14.204Z,1001.7
2018-06-08T04:09:14.222Z,1001.72
2018-06-08T04:10:14.245Z,1001.71
2018-06-08T04:11:14.267Z,1001.67
2018-06-08T04:12:14.291Z,1001.72
2018-06-08T04:13:14.318Z,1001.65
2018-06-08T04:14:14.343Z,1001.69
2018-06-08T04:15:14.367Z,1001.65
2018-06-08T04:16:14.395Z,1001.64
2018-06-08T04:17:14.420Z,1001.61
2018-06-08T04:18:14.435Z,1001.62
2018-06-08T04:19:14.465Z,1001.61
2018-06-08T04:20:14.488Z,1001.63
2018-06-08T04:21:14.515Z,1001.63
2018-06-08T04:22:14.541Z,1001.62
2018-06-08T04:23:14.555Z,1001.61
2018-06-08T04:24:14.584Z,1001.65
2018-06-08T04:25:14.607Z,1001.64
2018-06-08T04:26:14.637Z,1001.65
2018-06-08T04:27:14.658Z,1001.69
2018-06-08T04:28:14.682Z,1001.69
2018-06-08T04:29:14.703Z,1001.73
2018-06-08T04:30:14.730Z,1001.76
2018-06-08T04:31:14.754Z,1001.76
2018-06-08T04:32:14.776Z,1001.77
2018-06-08T04:33:14.802Z,1001.79
2018-06-08T04:34:14.822Z,1001.8
2018-06-08T04:35:14.846Z,1001.8
2018-06-08T04:36:14.869Z,1001.78
2018-06-08T04:37:14.895Z,1001.78
2018-06-08T04:38:14.921Z,1001.77
2018-06-08T04:39:14.945Z,1001.7
2018-06-08T04:40:14.970Z,1001.71
2018-06-08T04:41:14.992Z,1001.71
2018-06-08T04:42:15.013Z,1001.66
2018-06-08T04:43:15.037Z,1001.67
2018-06-08T04:44:15.069Z,1001.69
2018-06-08T04:45:15.082Z,1001.7
2018-06-08T04:46:15.112Z,1001.67
2018-06-08T04:47:15.133Z,1001.73
2018-06-08T04:48:15.154Z,1001.72
2018-06-08T04:49:15.175Z,1001.79
2018-06-08T04:50:15.200Z,1001.78
2018-06-08T04:51:15.222Z,1001.81
2018-06-08T04:52:15.251Z,1001.82
2018-06-08T04:53:15.270Z,1001.74
2018-06-08T04:54:15.297Z,1001.77
2018-06-08T04:55:15.326Z,1001.73
2018-06-08T04:56:15.346Z,1001.72
2018-06-08T04:57:15.376Z,1001.7
2018-06-08T04:58:15.393Z,1001.71
2018-06-08T04:59:15.424Z,1001.69
2018-06-08T05:00:15.445Z,1001.72
2018-06-08T05:01:15.519Z,1001.75
2018-06-08T05:02:15.484Z,1001.76
2018-06-08T05:03:15.513Z,1001.78
2018-06-08T05:04:15.539Z,1001.78
2018-06-08T05:05:15.562Z,1001.76
2018-06-08T05:06:15.584Z,1001.79
2018-06-08T05:07:15.611Z,1001.77
2018-06-08T05:08:15.631Z,1001.8
2018-06-08T05:09:15.649Z,1001.83
2018-06-08T05:10:15.673Z,1001.79
2018-06-08T05:11:15.705Z,1001.81
2018-06-08T05:12:15.728Z,1001.85
2018-06-08T05:13:15.752Z,1001.83
2018-06-08T05:14:15.770Z,1001.87
2018-06-08T05:15:15.794Z,1001.85
2018-06-08T05:16:15.820Z,1001.86
2018-06-08T05:17:15.848Z,1001.82
2018-06-08T05:18:15.867Z,1001.83
2018-06-08T05:19:15.890Z,1001.81
2018-06-08T05:20:15.917Z,1001.83
2018-06-08T05:21:15.933Z,1001.83
2018-06-08T05:22:15.958Z,1001.8
2018-06-08T05:23:15.988Z,1001.82
2018-06-08T05:24:16.012Z,1001.81
2018-06-08T05:25:16.027Z,1001.83
2018-06-08T05:26:16.098Z,1001.85
2018-06-08T05:27:16.083Z,1001.84
2018-06-08T05:28:16.099Z,1001.83
2018-06-08T05:29:16.127Z,1001.8
2018-06-08T05:30:16.145Z,1001.82
2018-06-08T05:31:16.169Z,1001.83
2018-06-08T05:32:16.198Z,1001.79
2018-06-08T05:33:16.221Z,1001.79
2018-06-08T05:34:16.246Z,1001.81
2018-06-08T05:35:16.270Z,1001.79
2018-06-08T05:36:16.295Z,1001.8
2018-06-08T05:37:16.320Z,1001.82
2018-06-08T05:38:16.342Z,1001.81
2018-06-08T05:39:16.366Z,1001.79
2018-06-08T05:40:16.389Z,1001.83
2018-06-08T05:41:16.411Z,1001.86
2018-06-08T05:42:16.429Z,1001.83
2018-06-08T05:43:16.454Z,1001.84
2018-06-08T05:44:16.477Z,1001.85
2018-06-08T05:45:16.502Z,1001.88
2018-06-08T05:46:16.528Z,1001.88
2018-06-08T05:47:16.554Z,1001.88
2018-06-08T05:48:16.635Z,1001.88
2018-06-08T05:49:16.607Z,1001.91
2018-06-08T05:50:16.618Z,1001.89
2018-06-08T05:51:16.641Z,1001.87
2018-06-08T05:52:16.668Z,1001.89
2018-06-08T05:53:16.693Z,1001.89
2018-06-08T05:54:16.726Z,1001.89
2018-06-08T05:55:16.743Z,1001.9
2018-06-08T05:56:16.768Z,1001.92
2018-06-08T05:57:16.783Z,1001.89
2018-06-08T05:58:16.805Z,1001.87
2018-06-08T05:59:16.830Z,1001.9
2018-06-08T06:00:16.854Z,1001.88
2018-06-08T06:01:16.878Z,1001.91
2018-06-08T06:02:16.912Z,1001.88
2018-06-08T06:03:16.943Z,1001.93
2018-06-08T06:04:16.951Z,1001.88
2018-06-08T06:05:16.981Z,1001.9
2018-06-08T06:06:17.000Z,1001.91
2018-06-08T06:07:17.019Z,1001.91
2018-06-08T06:08:17.052Z,1001.88
2018-06-08T06:09:17.071Z,1001.9
2018-06-08T06:10:17.098Z,1001.91
2018-06-08T06:11:17.119Z,1001.88
2018-06-08T06:12:17.140Z,1001.87
2018-06-08T06:13:17.163Z,1001.89
2018-06-08T06:14:17.190Z,1001.87
2018-06-08T06:15:17.209Z,1001.88
2018-06-08T06:16:17.233Z,1001.86
2018-06-08T06:17:17.264Z,1001.86
2018-06-08T06:18:17.284Z,1001.85
2018-06-08T06:19:17.308Z,1001.87
2018-06-08T06:20:17.331Z,1001.87
2018-06-08T06:21:17.352Z,1001.82
2018-06-08T06:22:17.374Z,1001.86
2018-06-08T06:23:17.399Z,1001.87
2018-06-08T06:24:17.428Z,1001.89
2018-06-08T06:25:17.447Z,1001.91
2018-06-08T06:26:17.478Z,1001.95
2018-06-08T06:27:17.503Z,1001.96
2018-06-08T06:28:17.528Z,1001.94
2018-06-08T06:29:17.545Z,1001.96
2018-06-08T06:30:17.567Z,1001.99
2018-06-08T06:31:17.593Z,1002.01
2018-06-08T06:32:17.640Z,1002.01
2018-06-08T06:33:17.652Z,1001.97
2018-06-08T06:34:17.670Z,1001.96
2018-06-08T06:35:17.693Z,1001.98
2018-06-08T06:36:17.715Z,1001.99
2018-06-08T06:37:17.734Z,1002.01
2018-06-08T06:38:17.759Z,1001.97
2018-06-08T06:39:17.778Z,1001.99
2018-06-08T06:40:17.805Z,1001.97
2018-06-08T06:41:17.826Z,1002
2018-06-08T06:42:17.857Z,1002
2018-06-08T06:43:17.873Z,1001.96
2018-06-08T06:44:17.905Z,1001.98
2018-06-08T06:45:17.932Z,1001.99
2018-06-08T06:46:17.945Z,1002
2018-06-08T06:47:17.969Z,1002
2018-06-08T06:48:18.003Z,1001.96
2018-06-08T06:49:18.025Z,1002
2018-06-08T06:50:18.050Z,1002
2018-06-08T06:51:18.074Z,1001.96
2018-06-08T06:52:18.089Z,1001.98
2018-06-08T06:53:18.114Z,1001.94
2018-06-08T06:54:18.141Z,1001.92
2018-06-08T06:55:18.160Z,1001.91
2018-06-08T06:56:18.193Z,1001.93
2018-06-08T06:57:18.210Z,1001.96
2018-06-08T06:58:18.239Z,1001.97
2018-06-08T06:59:18.262Z,1001.98
2018-06-08T07:00:18.291Z,1002.04
2018-06-08T07:01:18.314Z,1002.01
2018-06-08T07:02:18.336Z,1002.02
2018-06-08T07:03:18.359Z,1002.03
2018-06-08T07:04:18.376Z,1002.06
2018-06-08T07:05:18.413Z,1002.07
2018-06-08T07:06:18.432Z,1002.11
2018-06-08T07:07:18.451Z,1002.14
2018-06-08T07:08:18.479Z,1002.1
2018-06-08T07:09:18.501Z,1002.08
2018-06-08T07:10:18.525Z,1002.09
2018-06-08T07:11:18.552Z,1002.08
2018-06-08T07:12:18.576Z,1002.07
2018-06-08T07:13:18.599Z,1002.06
2018-06-08T07:14:18.624Z,1002.09
2018-06-08T07:15:18.646Z,1002.12
2018-06-08T07:16:18.673Z,1002.14
2018-06-08T07:17:18.690Z,1002.19
2018-06-08T07:18:18.722Z,1002.19
2018-06-08T07:19:18.737Z,1002.2
2018-06-08T07:20:18.761Z,1002.25
2018-06-08T07:21:18.794Z,1002.22
2018-06-08T07:22:18.809Z,1002.23
2018-06-08T07:23:18.834Z,1002.24
2018-06-08T07:24:18.864Z,1002.24
2018-06-08T07:25:18.884Z,1002.26
2018-06-08T07:26:18.909Z,1002.23
2018-06-08T07:27:18.935Z,1002.24
2018-06-08T07:28:18.962Z,1002.26
2018-06-08T07:29:18.984Z,1002.23
2018-06-08T07:30:19.004Z,1002.26
2018-06-08T07:31:19.038Z,1002.27
2018-06-08T07:32:19.057Z,1002.25
2018-06-08T07:33:19.086Z,1002.24
2018-06-08T07:34:19.106Z,1002.24
2018-06-08T07:35:19.134Z,1002.27
2018-06-08T07:36:19.160Z,1002.27
2018-06-08T07:37:19.185Z,1002.27
2018-06-08T07:38:19.301Z,1002.27
2018-06-08T07:39:19.226Z,1002.3
2018-06-08T07:40:19.272Z,1002.31
2018-06-08T07:41:19.383Z,1002.31
2018-06-08T07:42:19.309Z,1002.3
2018-06-08T07:43:19.329Z,1002.27
2018-06-08T07:44:19.363Z,1002.3
2018-06-08T07:45:19.374Z,1002.27
2018-06-08T07:46:19.400Z,1002.3
2018-06-08T07:48:59.858Z,1002.3
2018-06-08T07:49:59.835Z,1002.3
2018-06-08T07:50:59.858Z,1002.29
2018-06-08T07:51:59.886Z,1002.24
2018-06-08T07:52:59.912Z,1002.3
2018-06-08T07:53:59.991Z,1002.28
2018-06-08T07:54:59.962Z,1002.26
2018-06-08T07:56:00.038Z,1002.2
2018-06-08T07:57:00.015Z,1002.2
2018-06-08T07:58:00.035Z,1002.18
2018-06-08T07:59:00.108Z,1002.15
2018-06-08T08:00:00.118Z,1002.15
2018-06-08T08:01:00.115Z,1002.11
2018-06-08T08:02:00.139Z,1002.15
2018-06-08T08:03:00.159Z,1002.18
2018-06-08T08:04:00.191Z,1002.19
2018-06-08T08:05:00.213Z,1002.15
2018-06-08T08:06:00.239Z,1002.19
2018-06-08T08:07:00.264Z,1002.2
2018-06-08T08:08:00.301Z,1002.22
2018-06-08T08:09:00.321Z,1002.21
2018-06-08T08:10:00.341Z,1002.17
2018-06-08T08:11:00.372Z,1002.19
2018-06-08T08:12:00.388Z,1002.19
2018-06-08T08:13:00.419Z,1002.21
2018-06-08T08:14:00.453Z,1002.22
2018-06-08T08:15:00.478Z,1002.25
2018-06-08T08:16:00.500Z,1002.25
2018-06-08T08:17:00.528Z,1002.24
2018-06-08T08:18:00.548Z,1002.18
2018-06-08T08:19:00.569Z,1002.19
2018-06-08T08:20:00.601Z,1002.18
2018-06-08T08:21:00.625Z,1002.18
2018-06-08T08:22:00.657Z,1002.18
2018-06-08T08:23:00.680Z,1002.16
2018-06-08T08:24:00.703Z,1002.18
2018-06-08T08:25:00.728Z,1002.14
2018-06-08T08:26:00.772Z,1002.16
2018-06-08T08:27:00.789Z,1002.14
2018-06-08T08:28:00.816Z,1002.16
2018-06-08T08:29:00.838Z,1002.15
2018-06-08T08:30:00.865Z,1002.11
2018-06-08T08:31:00.890Z,1002.13
2018-06-08T08:32:00.912Z,1002.14
2018-06-08T08:33:00.943Z,1002.11
2018-06-08T08:34:00.961Z,1002.13
2018-06-08T08:35:00.989Z,1002.14
2018-06-08T08:36:01.019Z,1002.15
2018-06-08T08:37:01.052Z,1002.17
2018-06-08T08:38:01.068Z,1002.11
2018-06-08T08:39:01.098Z,1002.16
2018-06-08T08:40:01.126Z,1002.17
2018-06-08T08:41:01.150Z,1002.17
2018-06-08T08:42:01.181Z,1002.18
2018-06-08T08:43:01.203Z,1002.16
2018-06-08T08:44:01.232Z,1002.17
2018-06-08T08:45:01.266Z,1002.18
2018-06-08T08:46:01.289Z,1002.18
2018-06-08T08:47:01.317Z,1002.15
2018-06-08T08:48:01.346Z,1002.16
2018-06-08T08:49:01.369Z,1002.19
2018-06-08T08:50:01.401Z,1002.21
2018-06-08T08:51:01.420Z,1002.16
2018-06-08T08:52:01.461Z,1002.18
2018-06-08T08:53:01.480Z,1002.19
2018-06-08T08:54:01.507Z,1002.18
2018-06-08T08:55:01.534Z,1002.2
2018-06-08T08:56:01.563Z,1002.18
2018-06-08T08:57:01.605Z,1002.16
2018-06-08T08:58:01.614Z,1002.16
2018-06-08T08:59:01.644Z,1002.17
2018-06-08T09:00:01.673Z,1002.15
2018-06-08T09:01:01.697Z,1002.14
2018-06-08T09:02:01.732Z,1002.16
2018-06-08T09:03:01.761Z,1002.17
2018-06-08T09:04:01.783Z,1002.2
2018-06-08T09:05:01.817Z,1002.18
2018-06-08T09:06:01.837Z,1002.22
2018-06-08T09:07:01.867Z,1002.19
2018-06-08T09:08:01.893Z,1002.2
2018-06-08T09:09:01.925Z,1002.17
2018-06-08T09:10:01.958Z,1002.18
2018-06-08T09:11:01.986Z,1002.16
2018-06-08T09:12:02.012Z,1002.12
2018-06-08T09:13:02.041Z,1002.08
2018-06-08T09:14:02.069Z,1002.1
2018-06-08T09:15:02.096Z,1002.11
2018-06-08T09:16:02.122Z,1002.1
2018-06-08T09:17:02.151Z,1002.09
2018-06-08T09:18:02.184Z,1002.04
2018-06-08T09:19:02.215Z,1002.09
2018-06-08T09:20:02.290Z,1002.08
2018-06-08T09:21:02.266Z,1002.05
2018-06-08T09:22:02.298Z,1002.06
2018-06-08T09:23:02.331Z,1002
2018-06-08T09:24:02.359Z,1002.05
2018-06-08T09:25:02.385Z,1002.03
2018-06-08T09:26:02.410Z,1002.04
2018-06-08T09:27:02.448Z,1002.02
2018-06-08T09:28:02.475Z,1001.93
2018-06-08T09:29:02.497Z,1001.94
2018-06-08T09:30:02.585Z,1001.93
2018-06-08T09:31:02.560Z,1001.96
2018-06-08T09:32:02.591Z,1001.97
2018-06-08T09:33:02.617Z,1001.96
2018-06-08T09:34:02.651Z,1001.94
2018-06-08T09:35:02.688Z,1001.91
2018-06-08T09:36:02.705Z,1001.93
2018-06-08T09:37:02.743Z,1001.92
2018-06-08T09:38:02.771Z,1001.9
2018-06-08T09:39:02.797Z,1001.9
2018-06-08T09:40:02.874Z,1001.9
2018-06-08T09:41:02.858Z,1001.91
2018-06-08T09:42:02.885Z,1001.92
2018-06-08T09:43:02.917Z,1001.93
2018-06-08T09:44:02.950Z,1001.92
2018-06-08T09:45:02.982Z,1001.92
2018-06-08T09:46:03.015Z,1001.89
2018-06-08T09:47:03.042Z,1001.9
2018-06-08T09:48:03.065Z,1001.93
2018-06-08T09:49:03.100Z,1001.9
2018-06-08T09:50:03.132Z,1001.88
2018-06-08T09:51:03.164Z,1001.93
2018-06-08T09:52:03.186Z,1001.89
2018-06-08T09:53:03.219Z,1001.9
2018-06-08T09:54:03.248Z,1001.85
2018-06-08T09:55:03.313Z,1001.84
2018-06-08T09:56:03.312Z,1001.81
2018-06-08T09:57:03.346Z,1001.8
2018-06-08T09:58:03.370Z,1001.77
2018-06-08T09:59:03.406Z,1001.79
2018-06-08T10:00:03.437Z,1001.8
2018-06-08T10:01:03.480Z,1001.8
2018-06-08T10:02:03.498Z,1001.8
2018-06-08T10:03:03.533Z,1001.81
2018-06-08T10:04:03.565Z,1001.79
2018-06-08T10:05:03.593Z,1001.81
2018-06-08T10:06:03.622Z,1001.81
2018-06-08T10:07:03.652Z,1001.73
2018-06-08T10:08:03.684Z,1001.7
2018-06-08T10:09:03.715Z,1001.67
2018-06-08T10:10:03.752Z,1001.66
2018-06-08T10:11:03.779Z,1001.65
2018-06-08T10:12:03.811Z,1001.68
2018-06-08T10:13:03.845Z,1001.66
2018-06-08T10:14:03.870Z,1001.64
2018-06-08T10:15:03.906Z,1001.65
2018-06-08T10:16:03.937Z,1001.56
2018-06-08T10:17:03.970Z,1001.59
2018-06-08T10:18:04.009Z,1001.6
2018-06-08T10:19:04.034Z,1001.57
2018-06-08T10:20:04.068Z,1001.59
2018-06-08T10:21:04.099Z,1001.52
2018-06-08T10:22:04.147Z,1001.55
2018-06-08T10:23:04.163Z,1001.48
2018-06-08T10:24:04.193Z,1001.51
2018-06-08T10:25:04.220Z,1001.5
2018-06-08T10:26:04.261Z,1001.49
2018-06-08T10:27:04.293Z,1001.52
2018-06-08T10:28:04.324Z,1001.48
2018-06-08T10:29:04.354Z,1001.5
2018-06-08T10:30:04.388Z,1001.45
2018-06-08T10:31:04.421Z,1001.49
2018-06-08T10:32:04.448Z,1001.45
2018-06-08T10:33:04.483Z,1001.45
2018-06-08T10:34:04.543Z,1001.44
2018-06-08T10:35:04.551Z,1001.45
2018-06-08T10:36:04.581Z,1001.44
2018-06-08T10:37:04.618Z,1001.46
2018-06-08T10:38:04.655Z,1001.5
2018-06-08T10:39:04.680Z,1001.48
2018-06-08T10:40:04.796Z,1001.46
2018-06-08T10:41:04.746Z,1001.41
2018-06-08T10:42:04.777Z,1001.4
2018-06-08T10:43:04.806Z,1001.39
2018-06-08T10:44:04.848Z,1001.4
2018-06-08T10:45:04.874Z,1001.38
2018-06-08T10:46:04.911Z,1001.38
2018-06-08T10:47:04.946Z,1001.34
2018-06-08T10:48:04.977Z,1001.32
2018-06-08T10:49:05.011Z,1001.3
2018-06-08T10:50:05.049Z,1001.33
2018-06-08T10:51:05.081Z,1001.29
2018-06-08T10:52:05.111Z,1001.32
2018-06-08T10:53:05.144Z,1001.34
2018-06-08T10:54:05.180Z,1001.32
2018-06-08T10:55:05.212Z,1001.38
2018-06-08T10:56:05.247Z,1001.38
2018-06-08T10:57:05.276Z,1001.38
2018-06-08T10:58:05.308Z,1001.37
2018-06-08T10:59:05.348Z,1001.4
2018-06-08T11:00:05.376Z,1001.41
2018-06-08T11:01:05.412Z,1001.41
2018-06-08T11:02:05.462Z,1001.44
2018-06-08T11:03:05.478Z,1001.42
2018-06-08T11:04:05.515Z,1001.37
2018-06-08T11:05:05.543Z,1001.41
2018-06-08T11:06:05.582Z,1001.36
2018-06-08T11:07:05.617Z,1001.31
2018-06-08T11:08:05.646Z,1001.32
2018-06-08T11:09:05.686Z,1001.3
2018-06-08T11:10:05.717Z,1001.28
2018-06-08T11:11:05.751Z,1001.28
2018-06-08T11:12:05.789Z,1001.27
2018-06-08T11:13:05.824Z,1001.26
2018-06-08T11:14:05.861Z,1001.26
2018-06-08T11:15:05.888Z,1001.24
2018-06-08T11:16:05.923Z,1001.26
2018-06-08T11:17:05.959Z,1001.25
2018-06-08T11:18:05.995Z,1001.26
2018-06-08T11:19:06.031Z,1001.29
2018-06-08T11:20:06.067Z,1001.24
2018-06-08T11:21:06.099Z,1001.24
2018-06-08T11:22:06.149Z,1001.25
2018-06-08T11:23:06.165Z,1001.29
2018-06-08T11:24:06.204Z,1001.32
2018-06-08T11:25:06.240Z,1001.27
2018-06-08T11:26:06.273Z,1001.27
2018-06-08T11:27:06.309Z,1001.26
2018-06-08T11:28:06.339Z,1001.27
2018-06-08T11:29:06.378Z,1001.27
2018-06-08T11:30:06.416Z,1001.2
2018-06-08T11:31:06.452Z,1001.22
2018-06-08T11:32:06.483Z,1001.21
2018-06-08T11:33:06.514Z,1001.15
2018-06-08T11:34:06.554Z,1001.17
2018-06-08T11:35:06.584Z,1001.13
2018-06-08T11:36:06.626Z,1001.19
2018-06-08T11:37:06.655Z,1001.16
2018-06-08T11:38:06.694Z,1001.15
2018-06-08T11:39:06.762Z,1001.11
2018-06-08T11:40:06.762Z,1001.18
2018-06-08T11:41:06.803Z,1001.2
2018-06-08T11:42:06.841Z,1001.16
2018-06-08T11:43:06.869Z,1001.15
2018-06-08T11:44:06.909Z,1001.14
2018-06-08T11:45:06.948Z,1001.11
2018-06-08T11:46:06.981Z,1001.08
2018-06-08T11:47:07.022Z,1001.05
2018-06-08T11:48:07.048Z,1001.06
2018-06-08T11:49:07.084Z,1001.08
2018-06-08T11:50:07.125Z,1001.03
2018-06-08T11:51:07.166Z,1001.04
2018-06-08T11:52:07.192Z,1001.06
2018-06-08T11:53:07.239Z,1001.05
2018-06-08T11:54:07.268Z,1001.01
2018-06-08T11:55:07.300Z,1000.99
2018-06-08T11:56:07.342Z,1001.03
2018-06-08T11:57:07.384Z,1001
2018-06-08T11:58:07.409Z,1001.02
2018-06-08T11:59:07.449Z,1001
2018-06-08T12:00:07.485Z,1000.99
2018-06-08T12:01:07.527Z,1000.94
2018-06-08T12:02:07.558Z,1000.98
2018-06-08T12:03:07.593Z,1000.95
2018-06-08T12:04:07.641Z,1000.94
2018-06-08T12:05:07.668Z,1000.92
2018-06-08T12:06:07.703Z,1000.91
2018-06-08T12:07:07.739Z,1000.88
2018-06-08T12:08:07.779Z,1000.89
2018-06-08T12:09:07.887Z,1000.9
2018-06-08T12:10:07.850Z,1000.89
2018-06-08T12:11:07.886Z,1000.9